Time;durP1;ratioP1;P1;durP2;ratioP2;P2;SDS_P1;SDS_P2;PMS_P1;PMS_P2;Temp;Humidity;BMP_temperature;BMP_pressure;BME280_temperature;BME280_humidity;BME280_pressure;Samples;Min_cycle;Max_cycle;Signal;HPM_P1;HPM_P2
2022/08/10 00:01:08;;;;;;;4.43;1.47;;;;;;;18.59;78.52;102268.28;5014031;28;20433;-71
2022/08/10 00:03:35;;;;;;;5.37;1.60;;;;;;;18.52;78.53;102270.69;5013707;28;20440;-72
2022/08/10 00:06:01;;;;;;;2.80;1.20;;;;;;;18.44;78.63;102274.19;5013932;28;20437;-71
2022/08/10 00:08:28;;;;;;;3.80;1.67;;;;;;;18.36;79.24;102282.03;5013853;28;20440;-72
2022/08/10 00:10:55;;;;;;;3.00;1.10;;;;;;;18.30;79.24;102274.25;5013567;28;20452;-71
2022/08/10 00:13:24;;;;;;;2.83;1.00;;;;;;;18.25;79.32;102285.34;5013536;28;20444;-71
2022/08/10 00:15:51;;;;;;;3.47;1.30;;;;;;;18.09;79.59;102273.94;5013782;28;20450;-71
2022/08/10 00:18:17;;;;;;;4.07;2.03;;;;;;;18.03;80.00;102264.22;5013737;28;20931;-71
2022/08/10 00:20:44;;;;;;;3.80;1.43;;;;;;;18.01;80.46;102271.91;5013661;28;20459;-71
2022/08/10 00:23:11;;;;;;;2.90;1.33;;;;;;;17.97;80.43;102271.72;5013404;28;20946;-72
2022/08/10 00:25:37;;;;;;;3.70;1.37;;;;;;;17.90;80.66;102263.94;5013704;28;20436;-72
2022/08/10 00:28:04;;;;;;;12.00;1.80;;;;;;;17.87;80.91;102264.53;5013683;28;20788;-72
2022/08/10 00:30:32;;;;;;;5.60;1.63;;;;;;;17.78;81.65;102271.06;5013860;28;20495;-72
2022/08/10 00:32:58;;;;;;;3.73;1.63;;;;;;;17.72;81.73;102264.06;5013638;28;20445;-72
2022/08/10 00:35:25;;;;;;;3.00;1.33;;;;;;;17.69;82.15;102261.94;5012862;28;20447;-72
2022/08/10 00:37:51;;;;;;;5.27;1.90;;;;;;;17.63;83.11;102261.25;5013234;28;21011;-71
2022/08/10 00:40:18;;;;;;;3.30;1.50;;;;;;;17.58;82.45;102251.19;5013325;28;20495;-72
2022/08/10 00:42:45;;;;;;;4.07;1.60;;;;;;;17.52;82.53;102262.56;5013676;28;20455;-72
2022/08/10 00:45:11;;;;;;;5.13;1.77;;;;;;;17.44;82.53;102244.91;5013492;28;20448;-72
2022/08/10 00:47:39;;;;;;;3.10;1.13;;;;;;;17.36;82.50;102242.91;5013444;28;20440;-73
2022/08/10 00:50:07;;;;;;;3.43;1.77;;;;;;;17.31;83.03;102245.75;5013091;28;20472;-71
2022/08/10 00:52:35;;;;;;;3.77;1.60;;;;;;;17.20;83.50;102242.41;5013630;28;20440;-72
2022/08/10 00:55:03;;;;;;;3.40;1.30;;;;;;;17.16;84.28;102241.41;5013377;28;20443;-71
2022/08/10 00:57:30;;;;;;;5.90;1.33;;;;;;;17.15;84.15;102237.03;5013418;28;20444;-71
2022/08/10 00:59:56;;;;;;;3.80;1.70;;;;;;;17.09;84.14;102241.81;5012797;28;20503;-71
2022/08/10 01:02:23;;;;;;;4.30;1.80;;;;;;;17.06;83.90;102244.34;5013261;28;20447;-71
2022/08/10 01:04:51;;;;;;;4.30;1.40;;;;;;;17.01;84.52;102237.03;5013120;28;20811;-72
2022/08/10 01:07:32;;;;;;;4.20;1.57;;;;;;;16.93;84.68;102236.94;5013236;28;20455;-72
2022/08/10 01:10:14;;;;;;;3.80;1.67;;;;;;;16.80;84.91;102235.81;5013209;28;20822;-71
2022/08/10 01:12:46;;;;;;;5.63;1.70;;;;;;;16.71;85.01;102241.13;5013252;28;20420;-71
2022/08/10 01:15:19;;;;;;;3.20;1.30;;;;;;;16.63;85.33;102233.63;5013101;28;20428;-71
2022/08/10 01:17:53;;;;;;;3.60;1.77;;;;;;;16.54;85.43;102235.44;5013172;28;20424;-71
2022/08/10 01:20:37;;;;;;;3.37;1.50;;;;;;;16.48;85.24;102239.38;5012724;28;20865;-71
2022/08/10 01:23:30;;;;;;;3.47;1.37;;;;;;;16.40;85.57;102238.94;5012835;28;20972;-72
2022/08/10 01:26:27;;;;;;;3.53;1.67;;;;;;;16.32;86.04;102238.81;5013151;28;20428;-72
2022/08/10 01:29:11;;;;;;;5.00;1.97;;;;;;;16.25;86.22;102231.00;5012750;28;20460;-72
2022/08/10 01:31:43;;;;;;;3.57;1.80;;;;;;;16.19;86.64;102236.84;5013070;28;20482;-72
2022/08/10 01:34:13;;;;;;;3.40;1.77;;;;;;;16.15;87.08;102236.63;5013270;28;20423;-71
2022/08/10 01:36:45;;;;;;;3.70;1.50;;;;;;;16.10;87.19;102237.50;5012946;28;20443;-71
2022/08/10 01:39:19;;;;;;;6.70;2.40;;;;;;;16.07;87.05;102237.28;5012800;28;20491;-70
2022/08/10 01:41:50;;;;;;;4.87;2.03;;;;;;;16.04;86.60;102240.66;5012767;28;20436;-71
2022/08/10 01:44:23;;;;;;;3.20;1.40;;;;;;;16.02;86.82;102240.13;5012633;28;20436;-71
2022/08/10 01:48:27;;;;;;;3.53;1.83;;;;;;;15.94;86.82;102235.31;5015011;28;20929;-71
2022/08/10 01:49:45;;;;;;;3.30;1.43;;;;;;;15.89;87.15;102236.19;5015932;28;20470;-71
2022/08/10 01:52:14;;;;;;;4.67;1.90;;;;;;;15.91;87.09;102225.00;5016096;28;20436;-71
2022/08/10 01:54:43;;;;;;;4.60;1.93;;;;;;;15.86;86.61;102234.88;5016414;28;20440;-72
2022/08/10 01:57:13;;;;;;;4.20;2.20;;;;;;;15.86;87.05;102232.16;5016066;28;20846;-71
2022/08/10 01:59:43;;;;;;;3.97;1.80;;;;;;;15.73;87.54;102232.91;5016173;28;20487;-71
2022/08/10 02:02:13;;;;;;;2.90;1.40;;;;;;;15.79;87.27;102228.97;5016691;28;20429;-71
2022/08/10 02:04:45;;;;;;;8.73;2.17;;;;;;;15.71;87.52;102226.09;5016108;28;20452;-71
2022/08/10 02:07:16;;;;;;;3.73;2.00;;;;;;;15.70;87.43;102230.75;5016098;28;20444;-72
2022/08/10 02:09:47;;;;;;;5.07;1.80;;;;;;;15.68;87.84;102232.16;5015786;28;20992;-72
2022/08/10 02:12:18;;;;;;;3.90;1.70;;;;;;;15.57;88.17;102236.91;5016043;28;20420;-72
2022/08/10 02:14:50;;;;;;;3.73;1.90;;;;;;;15.58;88.13;102235.78;5016107;28;20435;-72
2022/08/10 02:17:20;;;;;;;4.73;2.43;;;;;;;15.57;88.41;102235.00;5015724;28;20437;-72
2022/08/10 02:19:48;;;;;;;10.93;2.53;;;;;;;15.56;88.54;102240.75;5015808;28;20484;-72
2022/08/10 02:22:18;;;;;;;4.07;1.93;;;;;;;15.47;89.15;102226.13;5015835;28;20857;-72
2022/08/10 02:24:47;;;;;;;4.53;2.10;;;;;;;15.35;89.56;102221.91;5015777;28;20498;-72
2022/08/10 02:27:15;;;;;;;6.50;2.20;;;;;;;15.43;89.79;102227.81;5015780;28;20448;-72
2022/08/10 02:29:43;;;;;;;4.90;2.33;;;;;;;15.46;89.32;102219.06;5015637;28;20464;-72
2022/08/10 02:32:12;;;;;;;5.33;2.60;;;;;;;15.48;89.33;102225.81;5015641;28;20474;-71
2022/08/10 02:34:41;;;;;;;4.77;2.10;;;;;;;15.47;88.99;102224.22;5015616;28;20444;-72
2022/08/10 02:37:10;;;;;;;4.43;2.33;;;;;;;15.44;89.54;102227.53;5015562;28;20444;-72
2022/08/10 02:39:37;;;;;;;5.77;2.27;;;;;;;15.44;89.43;102222.06;5015373;28;20483;-72
2022/08/10 02:42:08;;;;;;;4.30;2.17;;;;;;;15.49;88.66;102224.72;5015446;28;20444;-72
2022/08/10 02:44:42;;;;;;;8.17;2.10;;;;;;;15.45;88.95;102223.69;5015159;28;20435;-71
2022/08/10 02:47:13;;;;;;;4.30;1.73;;;;;;;15.38;89.02;102223.25;5015500;28;20424;-72
2022/08/10 02:49:43;;;;;;;5.70;2.40;;;;;;;15.30;89.66;102221.97;5015271;28;20456;-72
2022/08/10 02:52:17;;;;;;;4.93;2.30;;;;;;;15.25;89.75;102222.03;5015330;28;20437;-72
2022/08/10 02:54:55;;;;;;;4.63;2.07;;;;;;;15.23;89.60;102218.78;5015025;28;20917;-71
2022/08/10 02:57:27;;;;;;;4.70;1.67;;;;;;;15.28;89.67;102218.72;5014616;28;20435;-71
2022/08/10 02:59:55;;;;;;;5.40;2.20;;;;;;;15.23;89.68;102224.25;5014727;28;20498;-71
2022/08/10 03:02:27;;;;;;;4.80;2.07;;;;;;;15.08;89.92;102216.25;5014784;28;20444;-71
2022/08/10 03:05:01;;;;;;;4.47;1.93;;;;;;;15.08;90.25;102230.69;5015085;28;20486;-73
2022/08/10 03:07:32;;;;;;;8.20;2.30;;;;;;;15.13;89.88;102232.56;5015006;28;20848;-74
2022/08/10 03:10:01;;;;;;;6.53;1.70;;;;;;;15.11;89.63;102229.31;5014965;28;20456;-76
2022/08/10 03:12:29;;;;;;;5.13;2.10;;;;;;;14.97;90.41;102228.38;5014887;28;20440;-73
2022/08/10 03:14:58;;;;;;;8.60;2.20;;;;;;;15.05;89.57;102225.84;5014674;28;20952;-72
2022/08/10 03:17:26;;;;;;;4.80;2.17;;;;;;;15.04;89.82;102224.19;5014849;28;20448;-72
2022/08/10 03:19:56;;;;;;;5.13;2.20;;;;;;;14.97;90.23;102217.47;5014612;28;20499;-72
2022/08/10 03:22:23;;;;;;;5.13;2.53;;;;;;;14.87;90.36;102219.22;5014718;28;20439;-72
2022/08/10 03:24:52;;;;;;;4.17;2.23;;;;;;;14.96;89.83;102221.28;5014655;28;20444;-72
2022/08/10 03:27:19;;;;;;;4.03;1.47;;;;;;;14.95;90.02;102216.94;5014590;28;20451;-72
2022/08/10 03:29:47;;;;;;;4.37;2.10;;;;;;;14.92;90.18;102220.25;5014624;28;20468;-72
2022/08/10 03:32:14;;;;;;;6.10;2.50;;;;;;;14.87;89.83;102219.22;5014221;28;20934;-72
2022/08/10 03:34:42;;;;;;;8.67;2.97;;;;;;;14.84;90.15;102225.25;5014605;28;20448;-72
2022/08/10 03:37:10;;;;;;;5.60;1.97;;;;;;;14.80;90.09;102221.47;5014722;28;20440;-72
2022/08/10 03:39:36;;;;;;;4.17;1.90;;;;;;;14.73;90.57;102222.91;5014224;28;20488;-72
2022/08/10 03:42:06;;;;;;;3.90;2.00;;;;;;;14.72;90.54;102230.28;5014355;28;20461;-72
2022/08/10 03:44:35;;;;;;;4.90;2.33;;;;;;;14.72;90.28;102222.09;5014377;28;20518;-72
2022/08/10 03:47:05;;;;;;;4.80;2.00;;;;;;;14.68;90.17;102226.50;5014578;28;20440;-72
2022/08/10 03:49:33;;;;;;;7.93;2.40;;;;;;;14.69;90.42;102227.31;5014228;28;20459;-72
2022/08/10 03:52:00;;;;;;;6.27;2.53;;;;;;;14.70;90.61;102228.94;5014223;28;20470;-72
2022/08/10 03:54:28;;;;;;;5.90;2.33;;;;;;;14.70;90.32;102231.66;5014202;28;20972;-72
2022/08/10 03:56:55;;;;;;;7.90;1.97;;;;;;;14.69;89.88;102233.56;5014158;28;20451;-73
2022/08/10 03:59:21;;;;;;;5.17;2.27;;;;;;;14.67;90.12;102235.78;5013779;28;20476;-74
2022/08/10 04:01:50;;;;;;;5.63;2.50;;;;;;;14.59;91.32;102237.22;5039202;22;20502;-69
2022/08/10 04:04:17;;;;;;;10.27;2.80;;;;;;;14.62;91.47;102241.28;5014648;28;20440;-74
2022/08/10 04:06:44;;;;;;;9.43;3.07;;;;;;;14.57;92.08;102242.16;5014255;28;20444;-71
2022/08/10 04:09:11;;;;;;;6.70;2.93;;;;;;;14.65;91.60;102246.16;5013443;28;20447;-73
2022/08/10 04:11:39;;;;;;;16.53;2.80;;;;;;;14.68;91.06;102242.88;5013991;28;20460;-70
2022/08/10 04:14:05;;;;;;;12.60;4.17;;;;;;;14.59;91.55;102250.03;5013769;28;20501;-72
2022/08/10 04:16:32;;;;;;;6.70;3.00;;;;;;;14.69;91.33;102246.41;5013851;28;20440;-70
2022/08/10 04:18:58;;;;;;;6.30;2.77;;;;;;;14.69;91.43;102247.22;5013909;28;20443;-72
2022/08/10 04:21:36;;;;;;;7.93;2.87;;;;;;;14.69;91.40;102249.13;5013589;28;20867;-71
2022/08/10 04:24:05;;;;;;;16.27;4.17;;;;;;;14.68;91.49;102252.97;5014074;28;20420;-71
2022/08/10 04:26:32;;;;;;;7.43;3.17;;;;;;;14.69;92.08;102252.66;5013744;28;20809;-73
2022/08/10 04:29:00;;;;;;;6.73;2.87;;;;;;;14.71;92.99;102255.13;5013838;28;20447;-68
2022/08/10 04:31:28;;;;;;;10.30;3.80;;;;;;;14.73;93.97;102250.19;5013506;28;20467;-68
2022/08/10 04:33:57;;;;;;;5.83;2.50;;;;;;;14.73;94.16;102251.00;5013737;28;20448;-68
2022/08/10 04:36:25;;;;;;;6.00;2.57;;;;;;;14.85;94.12;102254.16;5013653;28;20448;-68
2022/08/10 04:38:53;;;;;;;7.43;3.53;;;;;;;14.94;94.90;102257.06;5013541;28;20448;-68
2022/08/10 04:41:20;;;;;;;12.93;3.90;;;;;;;15.00;95.94;102261.34;5013321;28;20483;-69
2022/08/10 04:43:47;;;;;;;7.87;3.50;;;;;;;14.97;97.11;102255.69;5013349;28;20941;-69
2022/08/10 04:46:15;;;;;;;6.00;2.87;;;;;;;15.08;96.77;102252.53;5013832;28;20455;-68
2022/08/10 04:48:41;;;;;;;8.07;3.53;;;;;;;15.11;96.65;102251.16;5013445;28;20443;-69
2022/08/10 04:51:09;;;;;;;6.67;3.10;;;;;;;15.20;96.84;102254.88;5013363;28;20440;-74
2022/08/10 04:53:36;;;;;;;7.37;3.33;;;;;;;15.29;96.81;102247.66;5013516;28;20452;-68
2022/08/10 04:56:03;;;;;;;8.43;4.07;;;;;;;15.38;96.95;102262.28;5013138;28;20491;-70
2022/08/10 04:58:29;;;;;;;8.90;2.43;;;;;;;15.47;96.79;102264.38;5013439;28;20460;-69
2022/08/10 05:00:56;;;;;;;4.53;2.37;;;;;;;15.58;96.79;102254.91;5013174;28;20483;-69
2022/08/10 05:03:24;;;;;;;7.30;3.40;;;;;;;15.67;96.71;102253.22;5012858;28;20483;-69
2022/08/10 05:05:50;;;;;;;9.03;3.13;;;;;;;15.78;96.99;102262.88;5013351;28;20447;-69
2022/08/10 05:08:17;;;;;;;7.77;2.50;;;;;;;15.89;96.81;102267.09;5013325;28;20470;-69
2022/08/10 05:10:43;;;;;;;5.30;2.60;;;;;;;15.94;97.16;102273.56;5013439;28;20443;-69
2022/08/10 05:13:10;;;;;;;5.23;2.37;;;;;;;15.99;98.18;102276.25;5013181;28;20464;-70
2022/08/10 05:15:36;;;;;;;4.80;2.30;;;;;;;16.13;97.66;102271.66;5013277;28;20451;-70
2022/08/10 05:18:03;;;;;;;7.20;2.97;;;;;;;16.25;97.55;102279.41;5013275;28;20455;-69
2022/08/10 05:20:31;;;;;;;8.03;3.20;;;;;;;16.35;98.05;102279.25;5013206;28;20484;-69
2022/08/10 05:22:57;;;;;;;8.33;2.93;;;;;;;16.46;97.90;102277.16;5016521;28;21004;-69
2022/08/10 05:25:24;;;;;;;5.60;2.73;;;;;;;16.56;97.65;102277.81;5017034;28;20447;-69
2022/08/10 05:27:50;;;;;;;5.87;2.80;;;;;;;16.66;97.00;102276.81;5016931;28;20522;-69
2022/08/10 05:30:19;;;;;;;5.77;2.30;;;;;;;16.72;97.05;102275.63;5017062;28;20498;-69
2022/08/10 05:32:46;;;;;;;6.60;2.70;;;;;;;16.84;97.24;102288.84;5016897;28;20481;-72
2022/08/10 05:35:13;;;;;;;6.67;2.70;;;;;;;16.94;96.46;102279.63;5016743;28;20444;-71
2022/08/10 05:37:41;;;;;;;5.90;3.10;;;;;;;17.03;95.99;102286.00;5016437;28;20446;-69
2022/08/10 05:40:08;;;;;;;6.33;2.20;;;;;;;17.08;95.37;102283.97;5016307;28;20487;-71
2022/08/10 05:42:35;;;;;;;6.10;2.60;;;;;;;17.17;94.91;102284.09;5016616;28;20487;-69
2022/08/10 05:45:02;;;;;;;5.20;2.63;;;;;;;17.24;94.40;102292.72;5016641;28;20444;-69
2022/08/10 05:47:29;;;;;;;5.50;2.67;;;;;;;17.32;94.19;102292.00;5016637;28;20448;-69
2022/08/10 05:49:56;;;;;;;9.50;2.83;;;;;;;17.39;93.86;102288.84;5016561;28;20447;-70
2022/08/10 05:52:22;;;;;;;5.50;2.63;;;;;;;17.46;93.46;102293.94;5016459;28;20883;-69
2022/08/10 05:54:51;;;;;;;4.57;2.60;;;;;;;17.54;93.16;102287.75;5016344;28;20444;-70
2022/08/10 05:57:22;;;;;;;4.80;2.10;;;;;;;17.59;93.00;102291.19;5016359;28;20478;-70
2022/08/10 05:59:56;;;;;;;4.53;2.30;;;;;;;17.66;92.51;102288.00;5016409;28;20799;-70
2022/08/10 06:02:27;;;;;;;4.80;2.10;;;;;;;17.76;91.97;102293.31;5015972;28;20472;-70
2022/08/10 06:04:55;;;;;;;5.30;2.50;;;;;;;17.83;91.94;102290.94;5016057;28;20906;-69
2022/08/10 06:07:25;;;;;;;4.50;2.47;;;;;;;17.84;91.11;102292.59;5016171;28;20451;-69
2022/08/10 06:09:55;;;;;;;4.27;2.40;;;;;;;17.90;91.61;102299.59;5016228;28;20440;-70
2022/08/10 06:12:23;;;;;;;4.00;1.83;;;;;;;18.04;90.89;102291.31;5015966;28;20460;-69
2022/08/10 06:15:02;;;;;;;9.53;2.80;;;;;;;18.14;90.34;102295.75;5015645;28;20865;-70
2022/08/10 06:17:29;;;;;;;6.53;2.80;;;;;;;18.24;90.28;102295.53;5016313;28;20436;-69
2022/08/10 06:19:57;;;;;;;6.43;2.30;;;;;;;18.33;90.13;102298.34;5015649;28;20911;-69
2022/08/10 06:22:24;;;;;;;4.77;2.40;;;;;;;18.38;90.06;102299.00;5016145;28;20468;-69
2022/08/10 06:24:51;;;;;;;5.00;2.60;;;;;;;18.45;89.59;102298.56;5015920;28;20447;-70
2022/08/10 06:27:19;;;;;;;3.93;1.67;;;;;;;18.56;89.13;102293.63;5015412;28;20447;-69
2022/08/10 06:29:46;;;;;;;4.63;2.37;;;;;;;18.66;88.69;102287.88;5015789;28;20444;-70
2022/08/10 06:32:14;;;;;;;4.70;2.37;;;;;;;18.74;88.78;102292.66;5014838;28;20464;-70
2022/08/10 06:34:47;;;;;;;4.77;2.60;;;;;;;18.78;88.14;102293.63;5015501;28;20455;-70
2022/08/10 06:37:17;;;;;;;7.00;2.33;;;;;;;18.85;88.19;102302.22;5015346;28;20914;-70
2022/08/10 06:39:44;;;;;;;3.47;1.63;;;;;;;18.93;87.95;102297.09;5015269;28;20497;-70
2022/08/10 06:42:15;;;;;;;5.00;2.60;;;;;;;18.99;87.88;102295.81;5015506;28;20488;-70
2022/08/10 06:44:49;;;;;;;7.13;2.60;;;;;;;19.06;87.22;102290.69;5015832;28;20424;-70
2022/08/10 06:47:18;;;;;;;3.63;2.00;;;;;;;19.20;86.66;102298.84;5015522;28;20486;-70
2022/08/10 06:49:46;;;;;;;5.37;1.60;;;;;;;19.29;86.11;102288.69;5015144;28;20440;-69
2022/08/10 06:52:15;;;;;;;5.30;2.53;;;;;;;19.38;86.27;102295.81;5015434;28;20468;-70
2022/08/10 06:54:43;;;;;;;4.53;1.67;;;;;;;19.48;85.39;102296.66;5015320;28;20444;-71
2022/08/10 06:57:11;;;;;;;6.23;2.30;;;;;;;19.56;84.89;102295.84;5014941;28;20448;-71
2022/08/10 06:59:41;;;;;;;5.80;2.00;;;;;;;19.61;84.02;102287.50;5014849;28;20988;-71
2022/08/10 07:02:10;;;;;;;4.40;1.77;;;;;;;19.62;82.56;102289.13;5014807;28;20496;-72
2022/08/10 07:04:44;;;;;;;7.43;2.53;;;;;;;19.75;83.51;102290.94;5015228;28;20503;-71
2022/08/10 07:07:16;;;;;;;3.90;2.13;;;;;;;19.88;82.99;102284.47;5014979;28;20458;-72
2022/08/10 07:09:44;;;;;;;4.80;2.50;;;;;;;19.91;82.67;102283.81;5015113;28;20431;-71
2022/08/10 07:12:14;;;;;;;4.90;2.50;;;;;;;20.01;82.13;102290.13;5015548;28;20498;-79
2022/08/10 07:14:44;;;;;;;4.47;2.03;;;;;;;20.03;82.35;102285.13;5014979;28;20432;-72
2022/08/10 07:17:14;;;;;;;5.90;2.70;;;;;;;20.06;81.28;102278.97;5014733;28;20566;-72
2022/08/10 07:19:42;;;;;;;6.97;1.83;;;;;;;20.13;80.95;102282.84;5014381;28;20440;-71
2022/08/10 07:22:09;;;;;;;6.73;2.20;;;;;;;20.19;81.95;102282.66;5014842;28;20520;-73
2022/08/10 07:24:38;;;;;;;6.90;2.10;;;;;;;20.29;81.40;102283.16;5014707;28;20448;-72
2022/08/10 07:27:06;;;;;;;7.87;2.87;;;;;;;20.36;81.04;102286.25;5014603;28;20442;-71
2022/08/10 07:29:35;;;;;;;6.73;2.20;;;;;;;20.45;80.20;102288.16;5014943;28;20440;-72
2022/08/10 07:32:04;;;;;;;3.67;1.73;;;;;;;20.56;80.11;102283.97;5014579;28;20459;-71
2022/08/10 07:34:32;;;;;;;7.70;2.60;;;;;;;20.54;79.40;102284.31;5014312;28;20965;-71
2022/08/10 07:37:03;;;;;;;5.07;1.73;;;;;;;20.66;77.53;102283.59;5014455;28;20452;-71
2022/08/10 07:39:31;;;;;;;6.30;2.77;;;;;;;20.83;78.00;102291.00;5014362;28;20451;-71
2022/08/10 07:41:59;;;;;;;6.83;2.83;;;;;;;20.94;78.84;102291.44;5014032;28;20997;-71
2022/08/10 07:44:28;;;;;;;5.20;2.27;;;;;;;20.96;78.59;102286.44;5014164;28;20448;-71
2022/08/10 07:46:57;;;;;;;4.87;2.00;;;;;;;20.98;78.10;102286.91;5014381;28;20476;-71
2022/08/10 07:49:27;;;;;;;4.37;1.57;;;;;;;21.04;77.65;102291.09;5013963;28;20467;-71
2022/08/10 07:51:56;;;;;;;3.77;1.60;;;;;;;21.14;75.68;102293.50;5014124;28;20456;-71
2022/08/10 07:54:25;;;;;;;4.67;1.40;;;;;;;21.24;75.24;102298.63;5014191;28;20462;-71
2022/08/10 07:56:53;;;;;;;2.83;1.40;;;;;;;21.30;73.66;102291.00;5013801;28;20819;-71
2022/08/10 07:59:25;;;;;;;4.57;1.53;;;;;;;21.32;74.30;102300.56;5013791;28;20852;-71
2022/08/10 08:01:55;;;;;;;7.20;1.90;;;;;;;21.39;73.08;102298.09;5013710;28;20488;-71
2022/08/10 08:04:23;;;;;;;4.20;1.37;;;;;;;21.49;72.92;102294.16;5013763;28;20980;-71
2022/08/10 08:06:51;;;;;;;3.50;1.57;;;;;;;21.55;73.60;102292.00;5014034;28;20439;-71
2022/08/10 08:09:20;;;;;;;3.63;1.30;;;;;;;21.58;71.97;102292.13;5013955;28;20440;-71
2022/08/10 08:11:48;;;;;;;4.20;1.30;;;;;;;21.63;71.25;102288.38;5013916;28;20461;-72
2022/08/10 08:14:16;;;;;;;3.60;1.33;;;;;;;21.71;71.48;102290.28;5014099;28;20448;-71
2022/08/10 08:16:45;;;;;;;4.20;1.73;;;;;;;21.80;70.31;102291.03;5013839;28;20443;-71
2022/08/10 08:19:12;;;;;;;3.60;2.07;;;;;;;21.82;70.44;102291.47;5013778;28;20440;-72
2022/08/10 08:21:39;;;;;;;6.27;2.03;;;;;;;21.88;69.48;102290.16;5013899;28;20491;-71
2022/08/10 08:24:08;;;;;;;4.90;1.67;;;;;;;21.94;70.62;102288.00;5013437;28;20451;-71
2022/08/10 08:26:37;;;;;;;5.27;1.43;;;;;;;22.02;70.62;102278.84;5013549;28;20443;-71
2022/08/10 08:29:04;;;;;;;2.70;1.10;;;;;;;22.06;70.02;102278.97;5013945;28;20447;-71
2022/08/10 08:31:32;;;;;;;3.90;1.77;;;;;;;22.14;68.98;102280.88;5013234;28;20463;-71
2022/08/10 08:34:00;;;;;;;3.90;1.57;;;;;;;22.20;66.60;102279.53;5013686;28;20451;-70
2022/08/10 08:36:28;;;;;;;3.20;1.50;;;;;;;22.21;65.38;102281.13;5013568;28;20440;-71
2022/08/10 08:38:55;;;;;;;5.20;1.63;;;;;;;22.31;64.72;102277.13;5013486;28;20817;-71
2022/08/10 08:41:42;;;;;;;3.67;1.33;;;;;;;22.35;65.40;102272.56;5013473;28;20483;-71
2022/08/10 08:44:17;;;;;;;3.83;1.60;;;;;;;22.31;63.87;102274.38;5013286;28;20421;-73
2022/08/10 08:47:07;;;;;;;3.13;1.30;;;;;;;22.42;62.08;102268.09;5013534;28;20427;-71
2022/08/10 08:49:46;;;;;;;4.37;1.60;;;;;;;22.52;62.57;102268.81;5013209;28;20906;-71
2022/08/10 08:52:31;;;;;;;2.70;1.13;;;;;;;22.65;63.02;102270.44;5013223;28;20977;-72
2022/08/10 08:55:17;;;;;;;3.30;1.30;;;;;;;22.77;62.40;102272.44;5013250;28;20474;-71
2022/08/10 08:57:51;;;;;;;2.90;1.10;;;;;;;22.88;60.30;102271.63;5017794;28;20432;-71
2022/08/10 09:00:28;;;;;;;4.17;1.87;;;;;;;22.98;59.87;102277.91;5017422;28;20428;-72
2022/08/10 09:03:38;;;;;;;4.70;1.50;;;;;;;23.10;55.74;102270.41;5017201;28;21001;-72
2022/08/10 09:06:23;;;;;;;3.73;1.47;;;;;;;23.18;54.97;102263.16;4956848;29;20438;-71
2022/08/10 09:09:07;;;;;;;3.63;1.63;;;;;;;23.24;57.98;102269.25;5016428;28;21034;-72
2022/08/10 09:11:48;;;;;;;3.50;1.80;;;;;;;23.33;56.26;102265.25;5017259;28;20478;-71
2022/08/10 09:14:24;;;;;;;3.40;1.50;;;;;;;23.39;57.41;102263.03;5017030;28;20898;-72
2022/08/10 09:16:56;;;;;;;3.33;1.27;;;;;;;23.41;54.83;102257.94;5016903;28;20420;-72
2022/08/10 09:19:31;;;;;;;2.70;0.90;;;;;;;23.46;55.46;102266.00;5017071;28;20428;-71
2022/08/10 09:22:01;;;;;;;6.17;1.40;;;;;;;23.48;54.03;102260.94;5017150;28;20835;-71
2022/08/10 09:24:36;;;;;;;2.87;1.63;;;;;;;23.51;54.49;102270.53;5016718;28;20432;-71
2022/08/10 09:27:09;;;;;;;2.70;0.90;;;;;;;23.58;55.01;102259.66;5017388;28;20424;-71
2022/08/10 09:29:44;;;;;;;3.13;1.10;;;;;;;23.63;52.82;102262.19;5016994;28;20424;-72
2022/08/10 09:32:17;;;;;;;3.20;1.00;;;;;;;23.69;51.71;102266.38;5017494;28;20459;-71
2022/08/10 09:34:56;;;;;;;2.80;1.10;;;;;;;23.80;47.83;102258.38;5016891;28;20435;-71
2022/08/10 09:37:28;;;;;;;3.03;1.17;;;;;;;23.86;50.81;102260.56;5016802;28;20536;-71
2022/08/10 09:39:58;;;;;;;3.07;1.20;;;;;;;23.93;50.57;102254.41;5016726;28;20454;-71
2022/08/10 09:42:32;;;;;;;2.93;1.00;;;;;;;23.97;48.94;102260.03;5016257;28;20494;-71
2022/08/10 09:45:08;;;;;;;3.17;1.00;;;;;;;24.09;48.09;102252.50;5016662;28;20428;-71
2022/08/10 09:47:57;;;;;;;2.47;0.93;;;;;;;24.12;47.56;102251.78;5016801;28;20443;-72
2022/08/10 09:50:32;;;;;;;3.40;1.30;;;;;;;24.20;47.57;102251.97;5016472;28;20416;-71
2022/08/10 09:53:08;;;;;;;2.83;1.10;;;;;;;24.26;47.59;102250.56;5016457;28;20470;-71
2022/08/10 09:55:48;;;;;;;5.30;1.40;;;;;;;24.30;47.95;102249.50;5016170;28;20936;-71
2022/08/10 09:58:34;;;;;;;2.77;0.87;;;;;;;24.41;47.04;102247.06;5016440;28;20435;-72
2022/08/10 10:01:11;;;;;;;2.40;0.80;;;;;;;24.51;46.44;102254.84;5016469;28;20475;-71
2022/08/10 10:03:44;;;;;;;2.70;0.90;;;;;;;24.58;46.44;102249.50;5017845;28;20441;-71
2022/08/10 10:06:17;;;;;;;2.77;0.97;;;;;;;24.65;45.97;102241.34;5016285;28;20504;-73
2022/08/10 10:08:52;;;;;;;2.40;0.70;;;;;;;24.60;44.32;102238.84;5016049;28;20420;-72
2022/08/10 10:11:24;;;;;;;2.40;0.80;;;;;;;24.73;45.73;102239.56;5015747;28;20455;-72
2022/08/10 10:14:01;;;;;;;2.40;0.73;;;;;;;24.73;43.90;102244.31;5016105;28;20435;-71
2022/08/10 10:16:48;;;;;;;2.73;1.00;;;;;;;24.84;43.30;102229.56;5015999;28;20428;-71
2022/08/10 10:19:32;;;;;;;3.50;0.80;;;;;;;25.04;42.42;102229.63;5015634;28;20902;-72
2022/08/10 10:22:12;;;;;;;2.87;1.00;;;;;;;25.04;43.89;102227.66;5015836;28;20499;-71
2022/08/10 10:24:45;;;;;;;5.07;1.50;;;;;;;25.11;43.00;102221.50;5015767;28;20428;-71
2022/08/10 10:27:20;;;;;;;2.83;0.70;;;;;;;25.17;43.58;102228.38;5015966;28;20451;-72
2022/08/10 10:29:54;;;;;;;2.80;0.90;;;;;;;25.15;42.66;102225.19;5016421;28;20439;-72
2022/08/10 10:32:29;;;;;;;2.13;0.67;;;;;;;25.17;42.75;102220.06;5015708;28;20463;-71
2022/08/10 10:35:01;;;;;;;2.63;0.80;;;;;;;25.30;42.45;102215.19;5015948;28;20431;-71
2022/08/10 10:37:30;;;;;;;3.50;1.10;;;;;;;25.45;43.65;102216.31;5015772;28;20437;-71
2022/08/10 10:40:01;;;;;;;2.10;0.60;;;;;;;25.57;45.08;102214.22;5015624;28;20451;-71
2022/08/10 10:42:35;;;;;;;2.50;0.80;;;;;;;25.63;42.20;102209.16;5015203;28;20484;-71
2022/08/10 10:45:10;;;;;;;4.80;1.23;;;;;;;25.67;42.13;102207.25;5015315;28;20973;-71
2022/08/10 10:47:53;;;;;;;3.47;1.20;;;;;;;25.79;41.17;102198.03;5015634;28;20436;-72
2022/08/10 10:50:28;;;;;;;2.43;0.90;;;;;;;25.95;40.97;102203.50;5015685;28;20432;-70
2022/08/10 10:53:02;;;;;;;2.93;1.10;;;;;;;26.07;40.83;102206.09;5015710;28;20570;-72
2022/08/10 10:55:36;;;;;;;2.40;0.73;;;;;;;26.15;41.59;102205.06;5015113;28;20924;-71
2022/08/10 10:58:11;;;;;;;2.60;0.93;;;;;;;26.25;42.72;102210.00;5015425;28;20417;-73
2022/08/10 11:00:44;;;;;;;2.97;0.93;;;;;;;26.40;40.69;102209.09;5015015;28;20921;-71
2022/08/10 11:03:44;;;;;;;2.83;0.90;;;;;;;26.33;40.03;102195.09;5014750;28;21012;-71
2022/08/10 11:06:20;;;;;;;2.30;0.67;;;;;;;26.43;40.52;102207.59;5015209;28;20443;-73
2022/08/10 11:08:52;;;;;;;2.53;1.00;;;;;;;26.57;40.21;102201.50;5014951;28;20864;-72
2022/08/10 11:11:25;;;;;;;5.17;1.33;;;;;;;26.73;38.43;102191.00;5014796;28;20887;-71
2022/08/10 11:14:11;;;;;;;2.47;0.80;;;;;;;26.73;37.94;102187.44;5015131;28;20432;-71
2022/08/10 11:16:46;;;;;;;2.40;0.70;;;;;;;26.83;39.25;102195.97;5014957;28;20434;-71
2022/08/10 11:19:19;;;;;;;2.47;0.83;;;;;;;26.98;39.85;102191.41;5014509;28;20428;-73
2022/08/10 11:21:57;;;;;;;2.77;1.00;;;;;;;27.30;38.67;102196.66;5014716;28;20456;-71
2022/08/10 11:24:41;;;;;;;2.97;1.00;;;;;;;27.73;38.39;102191.66;5014503;28;20909;-69
2022/08/10 11:27:15;;;;;;;2.10;0.60;;;;;;;28.39;35.70;102190.78;5014798;28;20441;-72
2022/08/10 11:29:50;;;;;;;2.77;0.70;;;;;;;29.05;35.06;102190.13;5014793;28;20413;-69
2022/08/10 11:32:19;;;;;;;2.50;0.97;;;;;;;29.92;35.26;102196.50;5014556;28;20459;-70
2022/08/10 11:34:54;;;;;;;2.50;0.77;;;;;;;30.65;32.98;102192.63;5014642;28;20444;-70
2022/08/10 11:37:33;;;;;;;4.90;1.10;;;;;;;31.09;33.36;102188.59;5014521;28;20434;-70
2022/08/10 11:40:09;;;;;;;2.20;0.63;;;;;;;31.58;32.69;102187.63;5014255;28;20797;-70
2022/08/10 11:42:40;;;;;;;3.37;0.90;;;;;;;31.99;32.27;102189.03;5014324;28;20487;-70